Time;durP1;ratioP1;P1;durP2;ratioP2;P2;SDS_P1;SDS_P2;PMS_P1;PMS_P2;Temp;Humidity;BMP_temperature;BMP_pressure;BME280_temperature;BME280_humidity;BME280_pressure;Samples;Min_cycle;Max_cycle;Signal;HPM_P1;HPM_P2
2023/04/30 00:01:19;;;;;;;;;;;10.30;95.00;;;;;;5028677;28;19921;-67
2023/04/30 00:03:44;;;;;;;;;;;10.20;95.00;;;;;;5046682;28;19913;-67
2023/04/30 00:06:10;;;;;;;;;;;10.20;94.90;;;;;;5046844;28;20322;-67
2023/04/30 00:08:35;;;;;;;;;;;10.20;94.90;;;;;;5046847;28;19975;-67
2023/04/30 00:11:01;;;;;;;;;;;10.20;94.90;;;;;;5028881;28;19913;-67
2023/04/30 00:13:26;;;;;;;;;;;10.20;94.90;;;;;;5046457;28;19917;-67
2023/04/30 00:15:52;;;;;;;;;;;10.20;94.90;;;;;;5046855;28;19913;-67
2023/04/30 00:18:17;;;;;;;;;;;10.10;94.90;;;;;;5047105;28;20284;-67
2023/04/30 00:20:42;;;;;;;;;;;10.10;94.90;;;;;;5046924;28;19961;-67
2023/04/30 00:23:08;;;;;;;;;;;10.10;94.90;;;;;;5043349;28;19913;-67
2023/04/30 00:25:34;;;;;;;;;;;10.10;94.90;;;;;;5045720;28;19913;-67
2023/04/30 00:27:59;;;;;;;;;;;10.10;95.00;;;;;;5046724;28;20036;-67
2023/04/30 00:30:25;;;;;;;;;;;10.10;95.00;;;;;;5046833;28;20658;-67
2023/04/30 00:32:50;;;;;;;;;;;10.00;95.00;;;;;;5046222;28;20526;-67
2023/04/30 00:35:16;;;;;;;;;;;10.00;94.90;;;;;;5046731;28;19916;-67
2023/04/30 00:37:41;;;;;;;;;;;10.00;94.90;;;;;;5046615;28;19932;-67
2023/04/30 00:40:07;;;;;;;;;;;10.00;95.00;;;;;;5046812;28;20546;-68
2023/04/30 00:42:33;;;;;;;;;;;10.00;94.90;;;;;;5046002;28;19920;-67
2023/04/30 00:44:58;;;;;;;;;;;10.00;95.00;;;;;;5045876;28;19974;-67
2023/04/30 00:47:23;;;;;;;;;;;9.90;94.90;;;;;;5046347;28;19916;-67
2023/04/30 00:49:49;;;;;;;;;;;9.90;94.90;;;;;;5046825;28;19916;-67
2023/04/30 00:52:15;;;;;;;;;;;9.90;94.90;;;;;;5046293;28;19913;-67
2023/04/30 00:54:40;;;;;;;;;;;9.90;95.00;;;;;;5046537;28;19913;-67
2023/04/30 00:57:06;;;;;;;;;;;9.90;94.90;;;;;;5046057;28;19916;-67
2023/04/30 00:59:32;;;;;;;;;;;9.90;94.90;;;;;;5028131;28;19958;-67
2023/04/30 01:01:57;;;;;;;;;;;9.80;94.90;;;;;;5045538;28;19952;-67
2023/04/30 01:04:23;;;;;;;;;;;9.80;94.90;;;;;;5046196;28;19920;-67
2023/04/30 01:06:48;;;;;;;;;;;9.80;94.90;;;;;;5045947;28;19916;-67
2023/04/30 01:09:15;;;;;;;;;;;9.80;94.90;;;;;;5046185;28;20619;-67
2023/04/30 01:12:00;;;;;;;;;;;9.80;94.90;;;;;;5028050;28;19913;-67
2023/04/30 01:14:26;;;;;;;;;;;9.80;94.90;;;;;;5027514;28;19935;-67
2023/04/30 01:16:57;;;;;;;;;;;9.80;94.90;;;;;;5045863;28;20358;-67
2023/04/30 01:19:35;;;;;;;;;;;9.70;94.80;;;;;;5046086;28;20370;-67
2023/04/30 01:22:03;;;;;;;;;;;9.70;94.90;;;;;;5045573;28;20382;-67
2023/04/30 01:24:37;;;;;;;;;;;9.70;94.90;;;;;;5044693;28;19923;-67
2023/04/30 01:27:22;;;;;;;;;;;9.70;94.90;;;;;;5040311;28;19917;-67
2023/04/30 01:29:48;;;;;;;;;;;9.70;94.90;;;;;;5026009;28;19989;-67
2023/04/30 01:32:14;;;;;;;;;;;9.70;94.90;;;;;;5030443;28;20392;-67
2023/04/30 01:34:39;;;;;;;;;;;9.60;94.80;;;;;;5045975;28;19959;-67
2023/04/30 01:37:05;;;;;;;;;;;9.60;94.80;;;;;;5045635;28;19913;-67
2023/04/30 01:39:34;;;;;;;;;;;9.60;94.90;;;;;;5045782;28;19998;-67
2023/04/30 01:42:00;;;;;;;;;;;9.60;94.90;;;;;;5045258;28;20571;-67
2023/04/30 01:44:25;;;;;;;;;;;9.60;94.80;;;;;;5045649;28;20374;-67
2023/04/30 01:46:57;;;;;;;;;;;9.50;94.80;;;;;;5045336;28;19916;-67
2023/04/30 01:49:35;;;;;;;;;;;9.60;94.90;;;;;;5045827;28;19913;-67
2023/04/30 01:52:10;;;;;;;;;;;9.50;94.90;;;;;;5045496;28;19963;-67
2023/04/30 01:54:50;;;;;;;;;;;9.50;94.80;;;;;;5045566;28;20358;-67
2023/04/30 01:57:20;;;;;;;;;;;9.50;94.90;;;;;;5038934;28;20338;-67
2023/04/30 01:59:46;;;;;;;;;;;9.50;94.90;;;;;;5045350;28;19913;-67
2023/04/30 02:02:11;;;;;;;;;;;9.50;94.90;;;;;;5044885;28;19908;-67
2023/04/30 02:04:37;;;;;;;;;;;9.50;94.90;;;;;;5045519;28;19927;-67
2023/04/30 02:07:02;;;;;;;;;;;9.40;94.90;;;;;;5045371;28;19969;-67
2023/04/30 02:09:28;;;;;;;;;;;9.40;94.80;;;;;;5045421;28;19909;-68
2023/04/30 02:11:53;;;;;;;;;;;9.40;94.80;;;;;;5044778;28;19927;-67
2023/04/30 02:14:19;;;;;;;;;;;9.40;94.80;;;;;;5045273;28;19908;-67
2023/04/30 02:16:44;;;;;;;;;;;9.40;94.80;;;;;;5045199;28;20330;-67
2023/04/30 02:19:11;;;;;;;;;;;9.30;94.80;;;;;;5027267;28;19957;-67
2023/04/30 02:21:36;;;;;;;;;;;9.30;94.80;;;;;;5045051;28;19967;-67
2023/04/30 02:24:02;;;;;;;;;;;9.30;94.80;;;;;;5044931;28;19956;-67
2023/04/30 02:26:27;;;;;;;;;;;9.30;94.80;;;;;;5042638;28;19916;-67
2023/04/30 02:28:53;;;;;;;;;;;9.30;94.80;;;;;;5045099;28;19913;-67
2023/04/30 02:31:18;;;;;;;;;;;9.30;94.80;;;;;;5044942;28;20322;-67
2023/04/30 02:33:44;;;;;;;;;;;9.30;94.80;;;;;;5044660;28;19920;-67
2023/04/30 02:36:09;;;;;;;;;;;9.20;94.80;;;;;;5044801;28;19917;-67
2023/04/30 02:38:35;;;;;;;;;;;9.30;94.80;;;;;;5044929;28;19916;-67
2023/04/30 02:41:01;;;;;;;;;;;9.20;94.70;;;;;;5044723;28;19915;-67
2023/04/30 02:43:26;;;;;;;;;;;9.30;94.80;;;;;;5044510;28;19962;-67
2023/04/30 02:45:52;;;;;;;;;;;9.20;94.80;;;;;;5044669;28;19917;-67
2023/04/30 02:48:17;;;;;;;;;;;9.20;94.70;;;;;;5044794;28;19913;-67
2023/04/30 02:50:43;;;;;;;;;;;9.20;94.70;;;;;;5044734;28;19913;-67
2023/04/30 02:53:08;;;;;;;;;;;9.20;94.70;;;;;;5044674;28;19908;-67
2023/04/30 02:55:34;;;;;;;;;;;9.20;94.70;;;;;;5044474;28;19909;-67
2023/04/30 02:57:59;;;;;;;;;;;9.10;94.70;;;;;;5038917;28;19955;-67
2023/04/30 03:00:25;;;;;;;;;;;9.10;94.70;;;;;;5044805;28;19913;-67
2023/04/30 03:02:50;;;;;;;;;;;9.10;94.70;;;;;;5026630;28;20515;-67
2023/04/30 03:05:16;;;;;;;;;;;9.10;94.70;;;;;;5044498;28;20373;-67
2023/04/30 03:07:41;;;;;;;;;;;9.10;94.70;;;;;;5046127;28;20255;-67
2023/04/30 03:10:07;;;;;;;;;;;9.10;94.70;;;;;;5048077;28;20011;-67
2023/04/30 03:12:33;;;;;;;;;;;9.10;94.70;;;;;;5047506;28;19917;-67
2023/04/30 03:14:58;;;;;;;;;;;9.00;94.70;;;;;;5048220;28;19938;-67
2023/04/30 03:17:24;;;;;;;;;;;9.00;94.70;;;;;;5047772;28;20655;-67
2023/04/30 03:19:50;;;;;;;;;;;9.00;94.70;;;;;;5048083;28;19913;-67
2023/04/30 03:22:18;;;;;;;;;;;9.00;94.70;;;;;;5047503;28;19921;-68
2023/04/30 03:24:44;;;;;;;;;;;9.00;94.70;;;;;;5048010;28;20308;-67
2023/04/30 03:27:09;;;;;;;;;;;9.00;95.00;;;;;;5047280;28;19924;-67
2023/04/30 03:29:35;;;;;;;;;;;9.00;94.70;;;;;;5041852;28;19947;-67
2023/04/30 03:32:00;;;;;;;;;;;9.00;94.70;;;;;;5046989;28;19972;-67
2023/04/30 03:34:26;;;;;;;;;;;8.90;94.60;;;;;;5047662;28;20262;-67
2023/04/30 03:36:51;;;;;;;;;;;8.90;94.60;;;;;;5047486;28;19995;-67
2023/04/30 03:39:17;;;;;;;;;;;8.90;94.60;;;;;;5047402;28;19925;-67
2023/04/30 03:41:42;;;;;;;;;;;8.90;94.60;;;;;;5047335;28;19965;-67
2023/04/30 03:44:14;;;;;;;;;;;8.90;94.60;;;;;;5047403;28;19920;-67
2023/04/30 03:46:41;;;;;;;;;;;8.90;94.60;;;;;;5047320;28;20035;-67
2023/04/30 03:49:06;;;;;;;;;;;8.90;94.60;;;;;;5047462;28;19908;-67
2023/04/30 03:51:32;;;;;;;;;;;8.80;94.60;;;;;;5047588;28;19993;-67
2023/04/30 03:53:57;;;;;;;;;;;8.80;94.60;;;;;;5029555;28;19955;-67
2023/04/30 03:56:24;;;;;;;;;;;8.80;94.60;;;;;;5047418;28;19944;-67
2023/04/30 03:58:50;;;;;;;;;;;8.90;94.60;;;;;;5041413;28;19913;-67
2023/04/30 04:01:15;;;;;;;;;;;8.80;94.60;;;;;;5046952;28;19920;-67
2023/04/30 04:03:41;;;;;;;;;;;8.80;94.60;;;;;;5046998;28;19991;-67
2023/04/30 04:06:06;;;;;;;;;;;8.80;94.60;;;;;;5047215;28;20008;-67
2023/04/30 04:08:32;;;;;;;;;;;8.80;94.60;;;;;;5047293;28;19948;-67
2023/04/30 04:10:58;;;;;;;;;;;8.80;94.60;;;;;;5047108;28;19919;-67
2023/04/30 04:13:23;;;;;;;;;;;8.80;94.60;;;;;;5046903;28;19913;-67
2023/04/30 04:15:49;;;;;;;;;;;8.80;94.60;;;;;;5047044;28;20571;-67
2023/04/30 04:18:14;;;;;;;;;;;8.80;94.60;;;;;;5046218;28;19912;-66
2023/04/30 04:20:40;;;;;;;;;;;8.80;94.60;;;;;;5046591;28;20401;-67
2023/04/30 04:23:05;;;;;;;;;;;8.80;94.60;;;;;;5046720;28;19921;-66
2023/04/30 04:25:32;;;;;;;;;;;8.80;94.60;;;;;;5046653;28;19916;-67
2023/04/30 04:27:57;;;;;;;;;;;8.70;94.60;;;;;;5043345;28;20009;-67
2023/04/30 04:30:23;;;;;;;;;;;8.80;94.60;;;;;;5044408;28;20521;-67
2023/04/30 04:32:52;;;;;;;;;;;8.80;94.60;;;;;;5046249;28;20003;-67
2023/04/30 04:35:18;;;;;;;;;;;8.70;94.50;;;;;;5046906;28;19913;-67
2023/04/30 04:37:43;;;;;;;;;;;8.70;94.50;;;;;;5028930;28;19935;-67
2023/04/30 04:40:11;;;;;;;;;;;8.70;94.50;;;;;;5046677;28;19913;-67
2023/04/30 04:42:37;;;;;;;;;;;8.70;94.50;;;;;;5046217;28;19913;-67
2023/04/30 04:45:06;;;;;;;;;;;8.70;94.50;;;;;;5047003;28;20465;-67
2023/04/30 04:47:32;;;;;;;;;;;8.70;94.50;;;;;;5046329;28;19913;-67
2023/04/30 04:49:58;;;;;;;;;;;8.70;94.50;;;;;;5046351;28;20369;-67
2023/04/30 04:52:23;;;;;;;;;;;8.70;94.40;;;;;;5046374;28;19927;-67
2023/04/30 04:54:49;;;;;;;;;;;8.70;94.70;;;;;;5046583;28;20304;-67
2023/04/30 04:57:14;;;;;;;;;;;8.70;94.50;;;;;;5040908;27;20651;-67
2023/04/30 04:59:40;;;;;;;;;;;8.70;94.50;;;;;;5045997;28;19920;-67
2023/04/30 05:02:05;;;;;;;;;;;8.70;94.40;;;;;;5046143;28;19917;-67
2023/04/30 05:04:31;;;;;;;;;;;8.70;94.40;;;;;;5046151;28;19966;-67
2023/04/30 05:06:56;;;;;;;;;;;8.70;94.40;;;;;;5046463;28;19924;-67
2023/04/30 05:09:22;;;;;;;;;;;8.70;94.50;;;;;;5046549;28;20417;-67
2023/04/30 05:11:48;;;;;;;;;;;8.70;94.50;;;;;;5045719;28;19917;-67
2023/04/30 05:14:13;;;;;;;;;;;8.70;94.40;;;;;;5046118;28;19940;-67
2023/04/30 05:16:39;;;;;;;;;;;8.70;94.40;;;;;;5028032;28;19909;-67
2023/04/30 05:19:04;;;;;;;;;;;8.70;94.40;;;;;;5045999;28;20006;-67
2023/04/30 05:21:30;;;;;;;;;;;8.70;94.40;;;;;;5028221;28;19929;-67
2023/04/30 05:23:56;;;;;;;;;;;8.70;94.40;;;;;;5028036;28;19909;-67
2023/04/30 05:26:23;;;;;;;;;;;8.80;94.50;;;;;;5045855;28;19913;-67
2023/04/30 05:28:49;;;;;;;;;;;8.80;94.50;;;;;;5045719;28;19916;-67
2023/04/30 05:31:15;;;;;;;;;;;8.80;94.50;;;;;;5028687;28;20674;-67
2023/04/30 05:33:41;;;;;;;;;;;8.80;94.50;;;;;;5045669;28;19913;-67
2023/04/30 05:36:06;;;;;;;;;;;8.70;94.50;;;;;;5045790;28;20477;-67
2023/04/30 05:38:32;;;;;;;;;;;8.80;94.50;;;;;;5045845;28;19965;-67
2023/04/30 05:40:57;;;;;;;;;;;8.70;94.50;;;;;;5045796;28;19913;-67
2023/04/30 05:43:23;;;;;;;;;;;8.80;94.50;;;;;;5045455;28;19919;-67
2023/04/30 05:45:48;;;;;;;;;;;8.80;94.60;;;;;;5045240;28;20366;-66
2023/04/30 05:48:14;;;;;;;;;;;8.80;94.50;;;;;;5045805;28;20642;-67
2023/04/30 05:50:39;;;;;;;;;;;8.80;94.50;;;;;;5045722;28;19913;-67
2023/04/30 05:53:05;;;;;;;;;;;8.80;94.50;;;;;;5027821;28;19921;-67
2023/04/30 05:55:30;;;;;;;;;;;8.80;94.40;;;;;;5045724;28;19913;-67
2023/04/30 05:57:56;;;;;;;;;;;8.80;94.40;;;;;;5039925;27;19917;-67
2023/04/30 06:00:21;;;;;;;;;;;8.80;94.30;;;;;;5045549;28;19919;-67
2023/04/30 06:02:47;;;;;;;;;;;8.80;94.40;;;;;;5045388;28;19920;-67
2023/04/30 06:05:13;;;;;;;;;;;8.90;94.40;;;;;;5045776;28;19913;-67
2023/04/30 06:07:38;;;;;;;;;;;8.80;94.30;;;;;;5045230;28;19931;-67
2023/04/30 06:10:04;;;;;;;;;;;8.90;94.40;;;;;;5045442;28;20434;-67
2023/04/30 06:12:30;;;;;;;;;;;8.90;94.30;;;;;;5045135;28;20620;-67
2023/04/30 06:14:56;;;;;;;;;;;8.90;94.30;;;;;;5045329;28;19913;-67
2023/04/30 06:17:21;;;;;;;;;;;9.00;94.30;;;;;;5044992;28;20007;-67
2023/04/30 06:19:47;;;;;;;;;;;9.00;94.30;;;;;;5045348;28;19991;-67
2023/04/30 06:22:12;;;;;;;;;;;9.00;94.30;;;;;;5044902;28;20274;-67
2023/04/30 06:24:38;;;;;;;;;;;9.00;94.30;;;;;;5045048;28;19913;-67
2023/04/30 06:27:03;;;;;;;;;;;9.00;94.30;;;;;;5044795;28;19965;-67
2023/04/30 06:29:29;;;;;;;;;;;9.00;94.20;;;;;;5039186;28;19912;-67
2023/04/30 06:31:54;;;;;;;;;;;9.10;94.30;;;;;;5044364;28;20360;-67
2023/04/30 06:34:20;;;;;;;;;;;9.10;94.20;;;;;;5044847;28;20021;-67
2023/04/30 06:36:45;;;;;;;;;;;9.10;94.20;;;;;;5044787;28;19917;-67
2023/04/30 06:39:13;;;;;;;;;;;9.20;94.20;;;;;;5044816;28;20028;-67
2023/04/30 06:41:39;;;;;;;;;;;9.10;94.20;;;;;;5045016;28;19909;-67
2023/04/30 06:44:04;;;;;;;;;;;9.20;94.20;;;;;;5030577;28;20281;-67
2023/04/30 06:46:30;;;;;;;;;;;9.20;94.30;;;;;;5048290;28;19924;-67
2023/04/30 06:48:55;;;;;;;;;;;9.20;94.20;;;;;;5048603;28;19987;-67
2023/04/30 06:51:21;;;;;;;;;;;9.20;94.10;;;;;;5048503;28;19908;-67
2023/04/30 06:53:46;;;;;;;;;;;9.30;94.20;;;;;;5048241;28;20730;-67
2023/04/30 06:56:12;;;;;;;;;;;9.30;94.10;;;;;;5048152;28;19989;-67
2023/04/30 06:58:37;;;;;;;;;;;9.40;94.10;;;;;;5042393;28;19935;-67
2023/04/30 07:01:03;;;;;;;;;;;9.40;94.00;;;;;;5048296;28;20295;-67
2023/04/30 07:03:28;;;;;;;;;;;9.40;94.00;;;;;;5048284;28;19960;-67
2023/04/30 07:05:54;;;;;;;;;;;9.40;94.00;;;;;;5048511;28;19917;-67
2023/04/30 07:08:21;;;;;;;;;;;9.40;93.90;;;;;;5048604;28;20329;-67
2023/04/30 07:10:46;;;;;;;;;;;9.40;93.90;;;;;;5030033;28;19942;-67
2023/04/30 07:13:12;;;;;;;;;;;9.50;93.90;;;;;;5047842;28;19916;-67
2023/04/30 07:15:37;;;;;;;;;;;9.50;94.00;;;;;;5047995;28;20285;-67
2023/04/30 07:18:03;;;;;;;;;;;9.50;94.00;;;;;;5048128;28;20541;-67
2023/04/30 07:20:28;;;;;;;;;;;9.50;94.00;;;;;;5047968;28;19913;-67
2023/04/30 07:22:54;;;;;;;;;;;9.50;93.90;;;;;;5047250;28;19917;-67
2023/04/30 07:25:20;;;;;;;;;;;9.50;94.20;;;;;;5047195;28;19912;-67
2023/04/30 07:27:45;;;;;;;;;;;9.50;93.90;;;;;;5046226;28;19965;-67
2023/04/30 07:30:11;;;;;;;;;;;9.60;93.90;;;;;;5047406;28;19961;-67
2023/04/30 07:32:37;;;;;;;;;;;9.60;93.90;;;;;;5047089;28;19915;-67
2023/04/30 07:35:03;;;;;;;;;;;9.60;93.90;;;;;;5048194;28;20007;-67
2023/04/30 07:37:28;;;;;;;;;;;9.60;94.00;;;;;;5047824;28;19958;-67
2023/04/30 07:39:54;;;;;;;;;;;9.60;93.90;;;;;;5048038;28;19929;-67
2023/04/30 07:42:19;;;;;;;;;;;9.70;93.90;;;;;;5047160;28;19919;-67
2023/04/30 07:44:45;;;;;;;;;;;9.70;93.90;;;;;;5047620;28;20007;-67
2023/04/30 07:47:10;;;;;;;;;;;9.70;93.80;;;;;;5047417;28;19916;-67
2023/04/30 07:49:36;;;;;;;;;;;9.80;93.80;;;;;;5047428;28;19916;-67
2023/04/30 07:52:02;;;;;;;;;;;9.80;93.80;;;;;;5047558;28;19940;-67
2023/04/30 07:54:27;;;;;;;;;;;9.80;93.70;;;;;;5047796;28;20055;-67
2023/04/30 07:56:53;;;;;;;;;;;9.80;93.70;;;;;;5044819;28;20357;-67
2023/04/30 07:59:20;;;;;;;;;;;9.80;93.70;;;;;;5043987;28;19960;-68
2023/04/30 08:01:46;;;;;;;;;;;9.80;93.70;;;;;;5047439;28;19913;-67
2023/04/30 08:04:11;;;;;;;;;;;9.90;93.70;;;;;;5047859;28;20529;-67
2023/04/30 08:06:37;;;;;;;;;;;9.90;93.70;;;;;;5047408;28;20000;-67
2023/04/30 08:09:03;;;;;;;;;;;10.00;93.70;;;;;;5047329;28;20432;-67
2023/04/30 08:11:28;;;;;;;;;;;10.00;93.70;;;;;;5029283;28;19913;-67
2023/04/30 08:13:54;;;;;;;;;;;10.00;93.70;;;;;;5029124;28;19953;-67
2023/04/30 08:16:19;;;;;;;;;;;10.00;93.60;;;;;;5046912;28;19917;-67
2023/04/30 08:18:45;;;;;;;;;;;10.10;93.60;;;;;;5047325;28;19920;-67
2023/04/30 08:21:11;;;;;;;;;;;10.10;93.50;;;;;;5047305;27;20068;-67
2023/04/30 08:23:37;;;;;;;;;;;10.10;93.50;;;;;;5046848;28;19957;-67
2023/04/30 08:26:03;;;;;;;;;;;10.10;93.40;;;;;;5046811;28;19917;-67
2023/04/30 08:28:28;;;;;;;;;;;10.20;93.50;;;;;;5046817;28;19913;-67
2023/04/30 08:30:54;;;;;;;;;;;10.20;93.60;;;;;;5046948;28;19909;-67
2023/04/30 08:33:19;;;;;;;;;;;10.20;93.40;;;;;;5046838;28;19916;-67
2023/04/30 08:35:45;;;;;;;;;;;10.30;93.40;;;;;;5047016;28;19920;-67
2023/04/30 08:38:10;;;;;;;;;;;10.30;93.50;;;;;;5047144;28;19919;-67
2023/04/30 08:40:36;;;;;;;;;;;10.30;93.40;;;;;;5047069;28;20498;-67
2023/04/30 08:43:05;;;;;;;;;;;10.40;93.40;;;;;;5046581;28;19913;-67
2023/04/30 08:45:31;;;;;;;;;;;10.40;93.30;;;;;;5029077;28;19913;-67
2023/04/30 08:47:58;;;;;;;;;;;10.40;93.30;;;;;;5046937;28;20277;-67
2023/04/30 08:50:24;;;;;;;;;;;10.50;93.30;;;;;;5046919;28;19989;-67
2023/04/30 08:52:49;;;;;;;;;;;10.50;93.10;;;;;;5046443;28;20588;-67
2023/04/30 08:55:15;;;;;;;;;;;10.50;93.00;;;;;;5046862;28;19912;-67
2023/04/30 08:57:40;;;;;;;;;;;10.60;93.20;;;;;;5046205;27;20022;-67
2023/04/30 09:00:06;;;;;;;;;;;10.60;93.00;;;;;;5028570;28;20365;-67
2023/04/30 09:02:32;;;;;;;;;;;10.70;93.10;;;;;;5046378;28;19913;-67
2023/04/30 09:04:58;;;;;;;;;;;10.70;93.10;;;;;;5046321;28;19923;-67
2023/04/30 09:07:27;;;;;;;;;;;10.80;93.30;;;;;;5046592;28;19913;-67
2023/04/30 09:09:53;;;;;;;;;;;10.80;93.00;;;;;;5046898;28;19952;-67
2023/04/30 09:12:19;;;;;;;;;;;10.90;93.10;;;;;;5028140;28;20008;-67
2023/04/30 09:14:58;;;;;;;;;;;11.00;93.00;;;;;;5046684;28;20513;-67
2023/04/30 09:17:24;;;;;;;;;;;11.00;92.70;;;;;;5045891;28;20389;-67
2023/04/30 09:19:50;;;;;;;;;;;11.00;92.70;;;;;;5046116;28;20007;-67
2023/04/30 09:22:22;;;;;;;;;;;11.10;92.50;;;;;;5028569;28;20478;-68
2023/04/30 09:24:49;;;;;;;;;;;11.10;92.50;;;;;;5046464;28;19965;-68
2023/04/30 09:27:16;;;;;;;;;;;11.20;92.60;;;;;;5045810;28;20521;-68
2023/04/30 09:29:41;;;;;;;;;;;11.20;92.60;;;;;;5045767;28;19978;-68
2023/04/30 09:32:07;;;;;;;;;;;11.30;92.60;;;;;;5045790;28;19909;-68
2023/04/30 09:34:34;;;;;;;;;;;11.30;92.50;;;;;;5046225;28;19913;-68
2023/04/30 09:37:00;;;;;;;;;;;11.40;92.50;;;;;;5046140;28;19909;-68
2023/04/30 09:39:25;;;;;;;;;;;11.50;92.50;;;;;;5046209;28;20409;-68
2023/04/30 09:41:51;;;;;;;;;;;11.50;92.50;;;;;;5045174;28;19978;-68
2023/04/30 09:44:29;;;;;;;;;;;11.50;92.30;;;;;;5046201;28;20053;-68
2023/04/30 09:46:56;;;;;;;;;;;11.60;92.50;;;;;;5045670;28;19917;-68
2023/04/30 09:49:22;;;;;;;;;;;11.70;92.40;;;;;;5045843;28;19920;-68
2023/04/30 09:51:57;;;;;;;;;;;11.70;92.30;;;;;;5045526;28;20583;-68
2023/04/30 09:54:28;;;;;;;;;;;11.70;92.40;;;;;;5045748;28;19913;-68
2023/04/30 09:56:56;;;;;;;;;;;11.80;92.40;;;;;;5043016;27;19981;-68
2023/04/30 09:59:26;;;;;;;;;;;11.90;92.50;;;;;;5042603;28;19956;-68
2023/04/30 10:01:52;;;;;;;;;;;11.90;92.60;;;;;;5045234;28;19909;-68
2023/04/30 10:04:18;;;;;;;;;;;11.90;92.40;;;;;;5027780;28;20505;-68
2023/04/30 10:06:43;;;;;;;;;;;12.00;92.60;;;;;;5045373;28;19947;-68
2023/04/30 10:09:10;;;;;;;;;;;12.10;92.70;;;;;;5045817;28;19913;-68
2023/04/30 10:11:36;;;;;;;;;;;12.10;92.70;;;;;;5027846;28;19917;-68
2023/04/30 10:14:02;;;;;;;;;;;12.20;92.70;;;;;;5045074;28;19915;-68
2023/04/30 10:16:47;;;;;;;;;;;12.30;92.70;;;;;;5045354;28;20254;-68
2023/04/30 10:19:22;;;;;;;;;;;12.40;92.70;;;;;;5031310;28;19909;-68
2023/04/30 10:21:48;;;;;;;;;;;12.40;92.60;;;;;;5048664;28;19925;-69
2023/04/30 10:24:17;;;;;;;;;;;12.50;92.70;;;;;;5031065;28;19973;-68
2023/04/30 10:26:43;;;;;;;;;;;12.60;92.70;;;;;;5048745;28;19919;-68
2023/04/30 10:29:09;;;;;;;;;;;12.70;92.90;;;;;;5043069;28;19917;-68
2023/04/30 10:31:35;;;;;;;;;;;12.70;92.70;;;;;;5048740;28;20365;-68
2023/04/30 10:34:23;;;;;;;;;;;12.80;92.70;;;;;;5048857;28;19920;-68
2023/04/30 10:36:50;;;;;;;;;;;12.90;93.00;;;;;;5030838;28;19928;-68
2023/04/30 10:39:21;;;;;;;;;;;13.10;93.00;;;;;;5048844;28;19963;-68
2023/04/30 10:41:47;;;;;;;;;;;13.20;93.00;;;;;;5030297;28;19917;-68
2023/04/30 10:44:13;;;;;;;;;;;13.30;93.00;;;;;;5030851;28;19923;-68
2023/04/30 10:46:39;;;;;;;;;;;13.40;93.00;;;;;;5048235;28;20598;-68
2023/04/30 10:49:05;;;;;;;;;;;13.50;92.90;;;;;;5048567;28;19919;-68
2023/04/30 10:51:57;;;;;;;;;;;13.60;92.90;;;;;;5048668;28;19920;-68
2023/04/30 10:54:27;;;;;;;;;;;13.70;92.90;;;;;;5048665;28;19951;-68
2023/04/30 10:56:55;;;;;;;;;;;13.80;92.90;;;;;;5046284;27;20512;-68
2023/04/30 10:59:20;;;;;;;;;;;13.90;92.80;;;;;;5027322;28;20341;-68
2023/04/30 11:01:56;;;;;;;;;;;14.00;92.80;;;;;;5048228;28;19985;-68
2023/04/30 11:04:22;;;;;;;;;;;14.10;92.80;;;;;;5048527;28;20020;-68
2023/04/30 11:07:07;;;;;;;;;;;14.30;92.70;;;;;;5048324;28;20143;-68
2023/04/30 11:09:36;;;;;;;;;;;14.40;92.80;;;;;;5048366;28;19912;-67
2023/04/30 11:12:02;;;;;;;;;;;14.50;92.80;;;;;;5032507;28;19916;-68
2023/04/30 11:14:30;;;;;;;;;;;14.70;92.40;;;;;;5048271;28;19919;-67
2023/04/30 11:16:57;;;;;;;;;;;14.80;92.80;;;;;;5048340;28;19913;-68
2023/04/30 11:19:24;;;;;;;;;;;14.90;92.80;;;;;;5048207;28;20322;-67
2023/04/30 11:22:10;;;;;;;;;;;15.00;92.80;;;;;;5047724;28;19949;-68
2023/04/30 11:24:50;;;;;;;;;;;15.10;93.00;;;;;;5051297;28;19935;-68
2023/04/30 11:27:23;;;;;;;;;;;15.20;93.00;;;;;;5029642;28;20263;-68
2023/04/30 11:29:50;;;;;;;;;;;15.30;93.10;;;;;;5042062;28;20297;-69
2023/04/30 11:32:17;;;;;;;;;;;15.40;93.10;;;;;;5047616;28;20773;-67
2023/04/30 11:34:43;;;;;;;;;;;15.50;93.20;;;;;;5047712;28;19914;-68
2023/04/30 11:37:11;;;;;;;;;;;15.60;93.10;;;;;;5047702;28;19963;-68
2023/04/30 11:39:38;;;;;;;;;;;15.60;93.10;;;;;;5047915;28;20384;-68
2023/04/30 11:42:06;;;;;;;;;;;15.70;93.10;;;;;;5047234;28;19966;-69
2023/04/30 11:44:31;;;;;;;;;;;15.80;93.10;;;;;;5047833;28;20362;-70
2023/04/30 11:46:57;;;;;;;;;;;15.90;93.10;;;;;;5047404;28;19920;-68
2023/04/30 11:49:22;;;;;;;;;;;16.00;93.20;;;;;;5047767;28;19920;-67
2023/04/30 11:51:49;;;;;;;;;;;16.00;93.20;;;;;;5047293;28;19917;-67
2023/04/30 11:54:14;;;;;;;;;;;16.00;93.30;;;;;;5047522;28;19908;-68
2023/04/30 11:56:45;;;;;;;;;;;16.00;93.50;;;;;;5046753;27;19956;-68
2023/04/30 11:59:11;;;;;;;;;;;16.10;93.50;;;;;;5042944;28;19956;-68
2023/04/30 12:01:36;;;;;;;;;;;16.20;93.80;;;;;;5029091;28;20361;-68
2023/04/30 12:04:03;;;;;;;;;;;16.20;93.30;;;;;;5047045;28;19909;-68
2023/04/30 12:06:29;;;;;;;;;;;16.30;93.30;;;;;;5062614;27;20004;-68
2023/04/30 12:08:56;;;;;;;;;;;16.20;93.40;;;;;;5047427;28;19913;-68
2023/04/30 12:11:24;;;;;;;;;;;16.20;93.70;;;;;;5047084;28;19913;-68
2023/04/30 12:13:50;;;;;;;;;;;16.20;94.10;;;;;;5047099;28;19920;-68
2023/04/30 12:16:16;;;;;;;;;;;16.30;93.80;;;;;;5047103;28;19917;-68
2023/04/30 12:18:41;;;;;;;;;;;16.40;93.90;;;;;;5047317;28;20045;-68
2023/04/30 12:21:08;;;;;;;;;;;16.50;94.00;;;;;;5047019;28;19917;-68
2023/04/30 12:23:34;;;;;;;;;;;16.50;93.80;;;;;;5046750;28;19992;-67
2023/04/30 12:25:59;;;;;;;;;;;16.50;93.70;;;;;;5047060;28;20509;-68
2023/04/30 12:28:25;;;;;;;;;;;16.50;92.90;;;;;;5046573;28;19955;-68
2023/04/30 12:30:52;;;;;;;;;;;16.60;93.80;;;;;;5046755;28;19920;-67
2023/04/30 12:33:17;;;;;;;;;;;16.70;93.90;;;;;;5046972;27;19913;-67
2023/04/30 12:35:43;;;;;;;;;;;16.70;93.70;;;;;;5046793;28;20008;-68
2023/04/30 12:38:09;;;;;;;;;;;16.70;93.60;;;;;;5028956;28;19909;-69
2023/04/30 12:40:34;;;;;;;;;;;16.70;93.50;;;;;;5027661;28;19915;-69
2023/04/30 12:43:01;;;;;;;;;;;16.70;93.90;;;;;;5045968;28;20289;-69
2023/04/30 12:45:42;;;;;;;;;;;16.80;94.00;;;;;;5046603;28;19913;-68
2023/04/30 12:48:08;;;;;;;;;;;16.80;94.10;;;;;;5046314;28;19968;-68
2023/04/30 12:50:33;;;;;;;;;;;16.70;93.30;;;;;;5046287;28;20003;-68
2023/04/30 12:53:03;;;;;;;;;;;16.80;94.10;;;;;;5044131;28;20061;-70
2023/04/30 12:55:30;;;;;;;;;;;16.90;94.20;;;;;;5025823;28;20368;-71
2023/04/30 12:58:22;;;;;;;;;;;16.90;94.00;;;;;;5040679;28;19913;-71
2023/04/30 13:00:48;;;;;;;;;;;17.00;94.00;;;;;;5039504;28;19917;-71
2023/04/30 13:03:15;;;;;;;;;;;17.00;93.70;;;;;;5046171;28;19996;-71
2023/04/30 13:05:41;;;;;;;;;;;17.10;93.60;;;;;;5046591;28;20286;-71
2023/04/30 13:08:06;;;;;;;;;;;17.10;93.40;;;;;;5046403;28;19913;-70
2023/04/30 13:10:32;;;;;;;;;;;17.20;93.30;;;;;;5046349;28;19996;-70
2023/04/30 13:12:58;;;;;;;;;;;17.30;92.60;;;;;;5045999;28;19971;-70
2023/04/30 13:15:24;;;;;;;;;;;17.30;93.10;;;;;;5045943;28;19956;-70
2023/04/30 13:17:49;;;;;;;;;;;17.40;93.30;;;;;;5046027;28;19913;-70
2023/04/30 13:20:15;;;;;;;;;;;17.40;93.20;;;;;;5046706;28;20293;-70
2023/04/30 13:22:40;;;;;;;;;;;17.50;93.10;;;;;;5030410;28;20004;-70
2023/04/30 13:25:06;;;;;;;;;;;17.60;92.80;;;;;;5042733;27;19916;-70
2023/04/30 13:27:32;;;;;;;;;;;17.70;92.40;;;;;;5043826;28;20296;-70
2023/04/30 13:30:00;;;;;;;;;;;17.80;92.50;;;;;;5046419;27;21552;-69
2023/04/30 13:32:25;;;;;;;;;;;17.90;92.30;;;;;;5045126;28;20343;-70
2023/04/30 13:34:53;;;;;;;;;;;17.90;92.40;;;;;;5043735;28;19913;-70
2023/04/30 13:37:19;;;;;;;;;;;18.00;92.10;;;;;;5045386;28;19961;-70
2023/04/30 13:39:45;;;;;;;;;;;18.10;91.20;;;;;;5045465;28;19985;-70
2023/04/30 13:42:10;;;;;;;;;;;18.10;91.90;;;;;;5044867;28;19920;-70
2023/04/30 13:44:37;;;;;;;;;;;18.20;92.10;;;;;;5045904;28;19977;-69
2023/04/30 13:47:03;;;;;;;;;;;18.30;91.70;;;;;;5045437;28;19926;-69
2023/04/30 13:49:28;;;;;;;;;;;18.30;90.60;;;;;;5045747;28;19992;-69
2023/04/30 13:51:54;;;;;;;;;;;18.50;91.60;;;;;;5045193;28;19913;-71
2023/04/30 13:54:19;;;;;;;;;;;18.50;91.40;;;;;;5045646;28;20368;-70
2023/04/30 13:56:45;;;;;;;;;;;18.50;90.30;;;;;;5027320;28;19913;-70
2023/04/30 13:59:10;;;;;;;;;;;18.60;91.70;;;;;;5045394;27;19913;-70
2023/04/30 14:01:36;;;;;;;;;;;18.60;91.80;;;;;;5045068;28;19909;-71
2023/04/30 14:04:02;;;;;;;;;;;18.60;90.40;;;;;;5045255;28;19920;-70
2023/04/30 14:06:28;;;;;;;;;;;18.70;91.60;;;;;;5027654;28;19924;-70
2023/04/30 14:08:53;;;;;;;;;;;18.70;91.00;;;;;;5045687;28;19978;-70
2023/04/30 14:11:19;;;;;;;;;;;18.70;92.00;;;;;;5045126;28;19913;-70
2023/04/30 14:13:45;;;;;;;;;;;18.80;90.80;;;;;;5060308;28;19920;-70
2023/04/30 14:16:10;;;;;;;;;;;18.80;91.70;;;;;;5045427;28;19912;-70
2023/04/30 14:18:36;;;;;;;;;;;18.90;91.30;;;;;;5027611;28;20315;-70
2023/04/30 14:21:01;;;;;;;;;;;18.90;91.50;;;;;;5045212;28;19924;-71